Main page
METAR-TAF:

METAR-TAF

Airports :

Dubai International Airport

Dubai, United Arab Emirates

latitude: 25-15-10N, longitude: 055-21-52E, elevation: 8 m

Current weather observation

The report was made 22 minutes ago, at 19:00 UTC
Wind 6 kt from the East
Temperature 35°C
Humidity 32%
Pressure 999 hPa
Visibility 10 km or more
no clouds below 1500 m and no cumulonimbus

METAR: OMDB 181900Z 09006KT CAVOK 35/16 Q0999 NOSIG

Time: 23:22 (19:22 UTC)

Forecast

The report was made 2 hours and 31 minutes ago, at 16:51 UTC
Forecast valid from 18 at 18 UTC to 20 at 00 UTC
Wind 5 kt from the East
Visibility 10 km or more
no clouds below 1500 m and no cumulonimbus
Becoming
from 19 at 07 UTC to 19 at 09 UTC
Wind 13 kt from the North/Northwest
Becoming
from 19 at 16 UTC to 19 at 18 UTC
Wind 5 kt from the South/Southeast

TAF: OMDB 181651Z 1818/2000 09005KT CAVOK BECMG 1907/1909 33013KT BECMG 1916/1918 16005KT

Weather observations and forecasts of more than 4000 airports (METAR and TAF reports).

The available stations are represented by yellow and red dots on the map.

Hover mouse over dot to see the name of the station.

Then click to see weather observations and forecasts.

To change the map : click on the green buttons with a black cross to zoom in, on the green button with a dash to zoom out, or on the green arrows for adjacent maps.


METAR-TAF: